Haga-Haga, South Africa
Current Conditions -  °F | °C
As of 8:10 AM on Monday 26 Jan 2015 (Local Time) from FAEL Reporting Station
Few Clouds Few Clouds  
Wind Chill: 77°   Ceiling: Unl
Heat Index: 79°   Visibility: 6mi
Dew Point: 70°   Wind: 5mph
Humidity: 78%   Direction: 90°E
Pressure: 29.85"   Gusts: NA
Location:  32.75°S, 28.25°E
Report Text: FAEL 260610Z 09004KT 040V120 9999 FEW030 25/21 Q1011
Loading
Personal Weather Stations






























Interactive Weather Map New forecast layout! Learn more

10-Day Weather Forecast

Advertisements
Track Severe Weather on mobile